sensor_id;sensor_type;location;lat;lon;timestamp;P1;durP1;ratioP1;P2;durP2;ratioP2
62832;SDS011;48891;49.220;6.920;2024-01-11T00:00:17;31.20;;;19.48;;
62832;SDS011;48891;49.220;6.920;2024-01-11T00:02:43;27.98;;;19.77;;
62832;SDS011;48891;49.220;6.920;2024-01-11T00:05:08;31.38;;;19.73;;
62832;SDS011;48891;49.220;6.920;2024-01-11T00:07:34;30.17;;;19.15;;
62832;SDS011;48891;49.220;6.920;2024-01-11T00:10:00;29.88;;;18.60;;
62832;SDS011;48891;49.220;6.920;2024-01-11T00:12:26;32.20;;;19.65;;
62832;SDS011;48891;49.220;6.920;2024-01-11T00:14:51;30.40;;;19.15;;
62832;SDS011;48891;49.220;6.920;2024-01-11T00:17:17;27.95;;;18.08;;
62832;SDS011;48891;49.220;6.920;2024-01-11T00:19:42;30.33;;;19.30;;
62832;SDS011;48891;49.220;6.920;2024-01-11T00:22:07;28.80;;;19.85;;
62832;SDS011;48891;49.220;6.920;2024-01-11T00:24:32;29.88;;;18.15;;
62832;SDS011;48891;49.220;6.920;2024-01-11T00:26:58;29.25;;;19.50;;
62832;SDS011;48891;49.220;6.920;2024-01-11T00:29:23;28.90;;;19.05;;
62832;SDS011;48891;49.220;6.920;2024-01-11T00:31:48;27.80;;;19.45;;
62832;SDS011;48891;49.220;6.920;2024-01-11T00:34:13;29.13;;;18.77;;
62832;SDS011;48891;49.220;6.920;2024-01-11T00:36:39;27.40;;;17.95;;
62832;SDS011;48891;49.220;6.920;2024-01-11T00:39:04;27.45;;;17.60;;
62832;SDS011;48891;49.220;6.920;2024-01-11T00:41:29;29.73;;;18.95;;
62832;SDS011;48891;49.220;6.920;2024-01-11T00:43:54;29.95;;;18.00;;
62832;SDS011;48891;49.220;6.920;2024-01-11T00:46:20;27.45;;;18.35;;
62832;SDS011;48891;49.220;6.920;2024-01-11T00:48:45;25.52;;;17.52;;
62832;SDS011;48891;49.220;6.920;2024-01-11T00:51:10;29.73;;;18.55;;
62832;SDS011;48891;49.220;6.920;2024-01-11T00:53:35;27.20;;;17.33;;
62832;SDS011;48891;49.220;6.920;2024-01-11T00:56:01;29.08;;;19.15;;
62832;SDS011;48891;49.220;6.920;2024-01-11T00:58:26;26.83;;;17.63;;
62832;SDS011;48891;49.220;6.920;2024-01-11T01:00:52;28.33;;;18.23;;
62832;SDS011;48891;49.220;6.920;2024-01-11T01:03:21;30.90;;;18.13;;
62832;SDS011;48891;49.220;6.920;2024-01-11T01:08:12;29.42;;;17.45;;
62832;SDS011;48891;49.220;6.920;2024-01-11T01:10:37;28.13;;;17.38;;
62832;SDS011;48891;49.220;6.920;2024-01-11T01:13:03;27.58;;;17.52;;
62832;SDS011;48891;49.220;6.920;2024-01-11T01:15:29;28.27;;;17.25;;
62832;SDS011;48891;49.220;6.920;2024-01-11T01:17:54;28.90;;;18.40;;
62832;SDS011;48891;49.220;6.920;2024-01-11T01:20:19;28.98;;;18.05;;
62832;SDS011;48891;49.220;6.920;2024-01-11T01:22:44;26.75;;;17.08;;
62832;SDS011;48891;49.220;6.920;2024-01-11T01:25:10;27.10;;;16.88;;
62832;SDS011;48891;49.220;6.920;2024-01-11T01:27:35;26.17;;;16.85;;
62832;SDS011;48891;49.220;6.920;2024-01-11T01:30:00;26.33;;;17.33;;
62832;SDS011;48891;49.220;6.920;2024-01-11T01:32:25;25.48;;;16.23;;
62832;SDS011;48891;49.220;6.920;2024-01-11T01:34:51;27.42;;;17.77;;
62832;SDS011;48891;49.220;6.920;2024-01-11T01:37:16;26.55;;;16.45;;
62832;SDS011;48891;49.220;6.920;2024-01-11T01:39:41;25.92;;;17.52;;
62832;SDS011;48891;49.220;6.920;2024-01-11T01:42:06;26.40;;;17.40;;
62832;SDS011;48891;49.220;6.920;2024-01-11T01:44:32;26.10;;;16.42;;
62832;SDS011;48891;49.220;6.920;2024-01-11T01:46:57;26.73;;;16.92;;
62832;SDS011;48891;49.220;6.920;2024-01-11T01:49:23;25.73;;;16.45;;
62832;SDS011;48891;49.220;6.920;2024-01-11T01:51:49;23.75;;;15.63;;
62832;SDS011;48891;49.220;6.920;2024-01-11T01:54:17;23.92;;;15.85;;
62832;SDS011;48891;49.220;6.920;2024-01-11T01:56:43;25.00;;;15.48;;
62832;SDS011;48891;49.220;6.920;2024-01-11T01:59:08;26.08;;;17.00;;
62832;SDS011;48891;49.220;6.920;2024-01-11T02:01:34;26.45;;;15.70;;
62832;SDS011;48891;49.220;6.920;2024-01-11T02:03:59;25.77;;;15.95;;
62832;SDS011;48891;49.220;6.920;2024-01-11T02:06:25;23.52;;;15.45;;
62832;SDS011;48891;49.220;6.920;2024-01-11T02:08:53;25.48;;;15.27;;
62832;SDS011;48891;49.220;6.920;2024-01-11T02:11:21;25.63;;;15.70;;
62832;SDS011;48891;49.220;6.920;2024-01-11T02:13:46;25.63;;;15.45;;
62832;SDS011;48891;49.220;6.920;2024-01-11T02:16:12;24.02;;;15.15;;
62832;SDS011;48891;49.220;6.920;2024-01-11T02:18:38;26.17;;;15.73;;
62832;SDS011;48891;49.220;6.920;2024-01-11T02:21:03;25.15;;;15.60;;
62832;SDS011;48891;49.220;6.920;2024-01-11T02:23:33;25.00;;;15.10;;
62832;SDS011;48891;49.220;6.920;2024-01-11T02:26:05;25.88;;;15.40;;
62832;SDS011;48891;49.220;6.920;2024-01-11T02:28:30;26.02;;;15.93;;
62832;SDS011;48891;49.220;6.920;2024-01-11T02:30:56;21.83;;;15.95;;
62832;SDS011;48891;49.220;6.920;2024-01-11T02:33:21;21.45;;;14.80;;
62832;SDS011;48891;49.220;6.920;2024-01-11T02:35:47;24.48;;;15.68;;
62832;SDS011;48891;49.220;6.920;2024-01-11T02:38:12;22.90;;;15.77;;
62832;SDS011;48891;49.220;6.920;2024-01-11T02:40:37;26.33;;;15.20;;
62832;SDS011;48891;49.220;6.920;2024-01-11T02:43:10;24.08;;;14.98;;
62832;SDS011;48891;49.220;6.920;2024-01-11T02:45:36;23.98;;;15.00;;
62832;SDS011;48891;49.220;6.920;2024-01-11T02:48:02;23.60;;;15.18;;
62832;SDS011;48891;49.220;6.920;2024-01-11T02:50:27;21.05;;;14.82;;
62832;SDS011;48891;49.220;6.920;2024-01-11T02:52:53;23.95;;;15.15;;
62832;SDS011;48891;49.220;6.920;2024-01-11T02:55:18;23.70;;;14.95;;
62832;SDS011;48891;49.220;6.920;2024-01-11T02:57:43;20.98;;;13.95;;
62832;SDS011;48891;49.220;6.920;2024-01-11T03:00:08;25.67;;;15.25;;
62832;SDS011;48891;49.220;6.920;2024-01-11T03:02:34;22.35;;;14.43;;
62832;SDS011;48891;49.220;6.920;2024-01-11T03:04:59;22.52;;;14.50;;
62832;SDS011;48891;49.220;6.920;2024-01-11T03:07:24;21.15;;;14.18;;
62832;SDS011;48891;49.220;6.920;2024-01-11T03:09:50;24.08;;;15.02;;
62832;SDS011;48891;49.220;6.920;2024-01-11T03:12:15;21.98;;;14.35;;
62832;SDS011;48891;49.220;6.920;2024-01-11T03:14:40;21.83;;;13.27;;
62832;SDS011;48891;49.220;6.920;2024-01-11T03:17:06;21.90;;;13.88;;
62832;SDS011;48891;49.220;6.920;2024-01-11T03:19:31;24.50;;;14.52;;
62832;SDS011;48891;49.220;6.920;2024-01-11T03:21:57;22.20;;;14.05;;
62832;SDS011;48891;49.220;6.920;2024-01-11T03:24:22;20.48;;;13.45;;
62832;SDS011;48891;49.220;6.920;2024-01-11T03:26:47;21.23;;;13.55;;
62832;SDS011;48891;49.220;6.920;2024-01-11T03:29:13;21.17;;;14.07;;
62832;SDS011;48891;49.220;6.920;2024-01-11T03:31:38;20.13;;;13.50;;
62832;SDS011;48891;49.220;6.920;2024-01-11T03:34:03;22.00;;;13.95;;
62832;SDS011;48891;49.220;6.920;2024-01-11T03:36:28;21.55;;;13.80;;
62832;SDS011;48891;49.220;6.920;2024-01-11T03:38:54;21.92;;;13.55;;
62832;SDS011;48891;49.220;6.920;2024-01-11T03:41:19;21.20;;;13.00;;
62832;SDS011;48891;49.220;6.920;2024-01-11T03:43:44;20.27;;;12.98;;
62832;SDS011;48891;49.220;6.920;2024-01-11T03:46:09;20.67;;;13.10;;
62832;SDS011;48891;49.220;6.920;2024-01-11T03:48:35;20.25;;;13.57;;
62832;SDS011;48891;49.220;6.920;2024-01-11T03:51:00;21.52;;;13.70;;
62832;SDS011;48891;49.220;6.920;2024-01-11T03:53:25;20.95;;;12.93;;
62832;SDS011;48891;49.220;6.920;2024-01-11T03:55:50;20.08;;;13.75;;
62832;SDS011;48891;49.220;6.920;2024-01-11T03:58:16;21.80;;;13.98;;
62832;SDS011;48891;49.220;6.920;2024-01-11T04:00:41;20.63;;;12.93;;
62832;SDS011;48891;49.220;6.920;2024-01-11T04:03:06;19.35;;;12.90;;
62832;SDS011;48891;49.220;6.920;2024-01-11T04:05:32;21.55;;;12.77;;
62832;SDS011;48891;49.220;6.920;2024-01-11T04:07:57;22.98;;;13.07;;
62832;SDS011;48891;49.220;6.920;2024-01-11T04:10:22;20.05;;;13.32;;
62832;SDS011;48891;49.220;6.920;2024-01-11T04:12:47;18.60;;;12.25;;
62832;SDS011;48891;49.220;6.920;2024-01-11T04:15:13;20.17;;;12.88;;
62832;SDS011;48891;49.220;6.920;2024-01-11T04:17:38;18.98;;;11.93;;
62832;SDS011;48891;49.220;6.920;2024-01-11T04:20:04;19.65;;;12.75;;
62832;SDS011;48891;49.220;6.920;2024-01-11T04:22:30;22.00;;;12.65;;
62832;SDS011;48891;49.220;6.920;2024-01-11T04:24:55;23.30;;;13.35;;
62832;SDS011;48891;49.220;6.920;2024-01-11T04:27:20;23.52;;;13.57;;
62832;SDS011;48891;49.220;6.920;2024-01-11T04:29:45;24.20;;;12.85;;
62832;SDS011;48891;49.220;6.920;2024-01-11T04:32:11;21.55;;;13.15;;
62832;SDS011;48891;49.220;6.920;2024-01-11T04:34:36;22.00;;;13.02;;
62832;SDS011;48891;49.220;6.920;2024-01-11T04:37:01;21.73;;;13.35;;
62832;SDS011;48891;49.220;6.920;2024-01-11T04:39:26;22.30;;;12.45;;
62832;SDS011;48891;49.220;6.920;2024-01-11T04:41:51;22.90;;;12.55;;
62832;SDS011;48891;49.220;6.920;2024-01-11T04:44:17;21.58;;;12.27;;
62832;SDS011;48891;49.220;6.920;2024-01-11T04:46:43;18.92;;;12.30;;
62832;SDS011;48891;49.220;6.920;2024-01-11T04:49:08;21.15;;;12.52;;
62832;SDS011;48891;49.220;6.920;2024-01-11T04:51:33;19.10;;;12.55;;
62832;SDS011;48891;49.220;6.920;2024-01-11T04:53:59;20.83;;;12.18;;
62832;SDS011;48891;49.220;6.920;2024-01-11T04:56:24;21.58;;;13.02;;
62832;SDS011;48891;49.220;6.920;2024-01-11T04:58:49;22.65;;;13.10;;
62832;SDS011;48891;49.220;6.920;2024-01-11T05:01:15;23.48;;;13.30;;
62832;SDS011;48891;49.220;6.920;2024-01-11T05:03:41;22.20;;;11.85;;
62832;SDS011;48891;49.220;6.920;2024-01-11T05:06:07;22.92;;;12.98;;
62832;SDS011;48891;49.220;6.920;2024-01-11T05:08:32;23.65;;;13.00;;
62832;SDS011;48891;49.220;6.920;2024-01-11T05:10:58;23.17;;;13.20;;
62832;SDS011;48891;49.220;6.920;2024-01-11T05:13:23;22.98;;;13.38;;
62832;SDS011;48891;49.220;6.920;2024-01-11T05:15:48;20.25;;;13.02;;
62832;SDS011;48891;49.220;6.920;2024-01-11T05:18:14;21.83;;;13.23;;
62832;SDS011;48891;49.220;6.920;2024-01-11T05:20:39;24.00;;;12.30;;
62832;SDS011;48891;49.220;6.920;2024-01-11T05:23:05;21.70;;;12.07;;
62832;SDS011;48891;49.220;6.920;2024-01-11T05:25:30;20.50;;;11.85;;
62832;SDS011;48891;49.220;6.920;2024-01-11T05:27:56;22.20;;;12.25;;
62832;SDS011;48891;49.220;6.920;2024-01-11T05:30:21;22.33;;;12.75;;
62832;SDS011;48891;49.220;6.920;2024-01-11T05:32:47;23.30;;;12.77;;
62832;SDS011;48891;49.220;6.920;2024-01-11T05:35:12;22.52;;;12.00;;
62832;SDS011;48891;49.220;6.920;2024-01-11T05:37:37;19.45;;;12.23;;
62832;SDS011;48891;49.220;6.920;2024-01-11T05:40:03;19.48;;;11.73;;
62832;SDS011;48891;49.220;6.920;2024-01-11T05:42:28;21.30;;;12.63;;
62832;SDS011;48891;49.220;6.920;2024-01-11T05:44:53;21.17;;;12.35;;
62832;SDS011;48891;49.220;6.920;2024-01-11T05:47:19;20.55;;;11.95;;
62832;SDS011;48891;49.220;6.920;2024-01-11T05:49:44;21.20;;;12.43;;
62832;SDS011;48891;49.220;6.920;2024-01-11T05:52:09;19.95;;;12.23;;
62832;SDS011;48891;49.220;6.920;2024-01-11T05:54:34;18.75;;;11.82;;
62832;SDS011;48891;49.220;6.920;2024-01-11T05:57:00;24.45;;;12.23;;
62832;SDS011;48891;49.220;6.920;2024-01-11T05:59:25;20.50;;;11.93;;
62832;SDS011;48891;49.220;6.920;2024-01-11T06:01:50;19.35;;;11.38;;
62832;SDS011;48891;49.220;6.920;2024-01-11T06:04:15;22.13;;;13.38;;
62832;SDS011;48891;49.220;6.920;2024-01-11T06:06:41;20.15;;;12.05;;
62832;SDS011;48891;49.220;6.920;2024-01-11T06:09:06;20.20;;;12.13;;
62832;SDS011;48891;49.220;6.920;2024-01-11T06:11:31;21.77;;;12.18;;
62832;SDS011;48891;49.220;6.920;2024-01-11T06:13:57;20.02;;;12.02;;
62832;SDS011;48891;49.220;6.920;2024-01-11T06:16:22;18.95;;;11.32;;
62832;SDS011;48891;49.220;6.920;2024-01-11T06:18:47;20.17;;;12.40;;
62832;SDS011;48891;49.220;6.920;2024-01-11T06:21:13;19.17;;;12.20;;
62832;SDS011;48891;49.220;6.920;2024-01-11T06:23:38;22.05;;;12.85;;
62832;SDS011;48891;49.220;6.920;2024-01-11T06:26:03;21.67;;;13.30;;
62832;SDS011;48891;49.220;6.920;2024-01-11T06:28:28;21.02;;;12.52;;
62832;SDS011;48891;49.220;6.920;2024-01-11T06:30:54;20.52;;;12.27;;
62832;SDS011;48891;49.220;6.920;2024-01-11T06:33:19;21.08;;;12.73;;
62832;SDS011;48891;49.220;6.920;2024-01-11T06:35:44;20.80;;;12.23;;
62832;SDS011;48891;49.220;6.920;2024-01-11T06:38:09;19.80;;;12.40;;
62832;SDS011;48891;49.220;6.920;2024-01-11T06:40:34;22.45;;;13.95;;
62832;SDS011;48891;49.220;6.920;2024-01-11T06:43:00;22.55;;;13.23;;
62832;SDS011;48891;49.220;6.920;2024-01-11T06:45:25;20.60;;;12.60;;
62832;SDS011;48891;49.220;6.920;2024-01-11T06:47:50;22.05;;;13.40;;
62832;SDS011;48891;49.220;6.920;2024-01-11T06:50:15;20.17;;;12.45;;
62832;SDS011;48891;49.220;6.920;2024-01-11T06:52:41;22.85;;;13.77;;
62832;SDS011;48891;49.220;6.920;2024-01-11T06:55:06;21.73;;;13.65;;
62832;SDS011;48891;49.220;6.920;2024-01-11T06:57:32;21.90;;;13.80;;
62832;SDS011;48891;49.220;6.920;2024-01-11T06:59:57;24.77;;;14.77;;
62832;SDS011;48891;49.220;6.920;2024-01-11T07:02:23;21.17;;;13.90;;
62832;SDS011;48891;49.220;6.920;2024-01-11T07:04:48;22.52;;;14.02;;
62832;SDS011;48891;49.220;6.920;2024-01-11T07:07:13;23.70;;;13.68;;
62832;SDS011;48891;49.220;6.920;2024-01-11T07:09:38;23.17;;;14.48;;
62832;SDS011;48891;49.220;6.920;2024-01-11T07:12:04;23.40;;;14.55;;
62832;SDS011;48891;49.220;6.920;2024-01-11T07:14:30;22.95;;;14.85;;
62832;SDS011;48891;49.220;6.920;2024-01-11T07:16:55;25.80;;;13.43;;
62832;SDS011;48891;49.220;6.920;2024-01-11T07:19:21;24.63;;;14.18;;
62832;SDS011;48891;49.220;6.920;2024-01-11T07:21:46;20.77;;;13.45;;
62832;SDS011;48891;49.220;6.920;2024-01-11T07:24:11;28.30;;;15.23;;
62832;SDS011;48891;49.220;6.920;2024-01-11T07:26:36;25.27;;;16.30;;
62832;SDS011;48891;49.220;6.920;2024-01-11T07:29:01;23.40;;;15.75;;
62832;SDS011;48891;49.220;6.920;2024-01-11T07:31:27;23.77;;;14.88;;
62832;SDS011;48891;49.220;6.920;2024-01-11T07:33:52;24.60;;;15.65;;
62832;SDS011;48891;49.220;6.920;2024-01-11T07:36:17;23.58;;;14.65;;
62832;SDS011;48891;49.220;6.920;2024-01-11T07:38:42;23.60;;;14.98;;
62832;SDS011;48891;49.220;6.920;2024-01-11T07:41:08;25.60;;;15.90;;
62832;SDS011;48891;49.220;6.920;2024-01-11T07:43:33;26.95;;;15.90;;
62832;SDS011;48891;49.220;6.920;2024-01-11T07:45:58;25.80;;;15.07;;
62832;SDS011;48891;49.220;6.920;2024-01-11T07:48:23;24.67;;;15.43;;
62832;SDS011;48891;49.220;6.920;2024-01-11T07:50:49;25.98;;;15.63;;
62832;SDS011;48891;49.220;6.920;2024-01-11T07:53:14;25.20;;;14.93;;
62832;SDS011;48891;49.220;6.920;2024-01-11T07:55:40;24.98;;;15.05;;
62832;SDS011;48891;49.220;6.920;2024-01-11T07:58:05;24.48;;;15.45;;
62832;SDS011;48891;49.220;6.920;2024-01-11T08:00:30;26.30;;;15.60;;
62832;SDS011;48891;49.220;6.920;2024-01-11T08:02:56;24.10;;;15.05;;
62832;SDS011;48891;49.220;6.920;2024-01-11T08:05:21;22.50;;;15.15;;
62832;SDS011;48891;49.220;6.920;2024-01-11T08:07:46;24.70;;;15.90;;
62832;SDS011;48891;49.220;6.920;2024-01-11T08:10:11;23.33;;;15.95;;
62832;SDS011;48891;49.220;6.920;2024-01-11T08:12:37;23.92;;;14.88;;
62832;SDS011;48891;49.220;6.920;2024-01-11T08:15:02;26.17;;;17.00;;
62832;SDS011;48891;49.220;6.920;2024-01-11T08:17:27;24.98;;;16.20;;
62832;SDS011;48891;49.220;6.920;2024-01-11T08:19:52;24.88;;;16.15;;
62832;SDS011;48891;49.220;6.920;2024-01-11T08:22:18;25.10;;;16.83;;
62832;SDS011;48891;49.220;6.920;2024-01-11T08:24:43;22.17;;;14.93;;
62832;SDS011;48891;49.220;6.920;2024-01-11T08:27:08;23.30;;;16.02;;
62832;SDS011;48891;49.220;6.920;2024-01-11T08:29:33;26.42;;;17.08;;
62832;SDS011;48891;49.220;6.920;2024-01-11T08:31:59;30.38;;;17.27;;
62832;SDS011;48891;49.220;6.920;2024-01-11T08:34:24;26.83;;;17.50;;
62832;SDS011;48891;49.220;6.920;2024-01-11T08:36:49;23.00;;;16.38;;
62832;SDS011;48891;49.220;6.920;2024-01-11T08:39:15;24.23;;;17.42;;
62832;SDS011;48891;49.220;6.920;2024-01-11T08:41:40;23.67;;;17.05;;
62832;SDS011;48891;49.220;6.920;2024-01-11T08:44:05;29.40;;;18.48;;
62832;SDS011;48891;49.220;6.920;2024-01-11T08:46:31;25.02;;;15.85;;
62832;SDS011;48891;49.220;6.920;2024-01-11T08:48:56;29.58;;;18.80;;
62832;SDS011;48891;49.220;6.920;2024-01-11T08:51:22;25.45;;;17.55;;
62832;SDS011;48891;49.220;6.920;2024-01-11T08:53:47;28.38;;;17.00;;
62832;SDS011;48891;49.220;6.920;2024-01-11T08:56:13;26.75;;;18.42;;
62832;SDS011;48891;49.220;6.920;2024-01-11T08:58:39;27.98;;;18.88;;
62832;SDS011;48891;49.220;6.920;2024-01-11T09:01:05;26.20;;;18.40;;
62832;SDS011;48891;49.220;6.920;2024-01-11T09:03:30;28.02;;;17.50;;
62832;SDS011;48891;49.220;6.920;2024-01-11T09:05:55;22.77;;;17.08;;
62832;SDS011;48891;49.220;6.920;2024-01-11T09:08:21;29.30;;;17.77;;
62832;SDS011;48891;49.220;6.920;2024-01-11T09:10:46;28.20;;;17.10;;
62832;SDS011;48891;49.220;6.920;2024-01-11T09:13:11;28.48;;;17.73;;
62832;SDS011;48891;49.220;6.920;2024-01-11T09:15:36;26.10;;;17.38;;
62832;SDS011;48891;49.220;6.920;2024-01-11T09:18:02;25.92;;;17.70;;
62832;SDS011;48891;49.220;6.920;2024-01-11T09:20:27;28.25;;;18.60;;
62832;SDS011;48891;49.220;6.920;2024-01-11T09:22:52;29.67;;;19.83;;
62832;SDS011;48891;49.220;6.920;2024-01-11T09:25:18;25.40;;;18.05;;
62832;SDS011;48891;49.220;6.920;2024-01-11T09:27:43;25.75;;;18.35;;
62832;SDS011;48891;49.220;6.920;2024-01-11T09:30:08;28.95;;;18.75;;
62832;SDS011;48891;49.220;6.920;2024-01-11T09:32:34;29.50;;;18.98;;
62832;SDS011;48891;49.220;6.920;2024-01-11T09:34:59;27.42;;;19.15;;
62832;SDS011;48891;49.220;6.920;2024-01-11T09:37:24;25.52;;;17.42;;
62832;SDS011;48891;49.220;6.920;2024-01-11T09:39:49;29.23;;;18.38;;
62832;SDS011;48891;49.220;6.920;2024-01-11T09:42:15;27.38;;;18.70;;
62832;SDS011;48891;49.220;6.920;2024-01-11T09:44:40;28.88;;;17.50;;
62832;SDS011;48891;49.220;6.920;2024-01-11T09:47:07;28.40;;;18.60;;
62832;SDS011;48891;49.220;6.920;2024-01-11T09:49:34;27.90;;;18.55;;
62832;SDS011;48891;49.220;6.920;2024-01-11T09:52:01;25.40;;;17.95;;
62832;SDS011;48891;49.220;6.920;2024-01-11T09:54:27;24.95;;;18.17;;
62832;SDS011;48891;49.220;6.920;2024-01-11T09:56:53;29.38;;;18.10;;
62832;SDS011;48891;49.220;6.920;2024-01-11T09:59:20;24.58;;;18.60;;
62832;SDS011;48891;49.220;6.920;2024-01-11T10:01:46;26.05;;;18.70;;
62832;SDS011;48891;49.220;6.920;2024-01-11T10:04:12;25.15;;;17.02;;
62832;SDS011;48891;49.220;6.920;2024-01-11T10:06:39;27.42;;;19.45;;
62832;SDS011;48891;49.220;6.920;2024-01-11T10:09:05;25.13;;;18.30;;
62832;SDS011;48891;49.220;6.920;2024-01-11T10:11:31;29.67;;;18.75;;
62832;SDS011;48891;49.220;6.920;2024-01-11T10:13:56;25.35;;;16.98;;
62832;SDS011;48891;49.220;6.920;2024-01-11T10:16:22;25.40;;;17.67;;
62832;SDS011;48891;49.220;6.920;2024-01-11T10:18:47;25.30;;;17.85;;
62832;SDS011;48891;49.220;6.920;2024-01-11T10:21:13;25.55;;;17.25;;
62832;SDS011;48891;49.220;6.920;2024-01-11T10:23:38;26.70;;;18.10;;
62832;SDS011;48891;49.220;6.920;2024-01-11T10:26:03;25.17;;;17.80;;
62832;SDS011;48891;49.220;6.920;2024-01-11T10:28:29;25.23;;;17.70;;
62832;SDS011;48891;49.220;6.920;2024-01-11T10:30:54;25.98;;;17.17;;
62832;SDS011;48891;49.220;6.920;2024-01-11T10:33:20;23.90;;;17.05;;
62832;SDS011;48891;49.220;6.920;2024-01-11T10:35:46;25.05;;;17.52;;
62832;SDS011;48891;49.220;6.920;2024-01-11T10:38:12;23.60;;;17.63;;
62832;SDS011;48891;49.220;6.920;2024-01-11T10:40:39;26.48;;;17.77;;
62832;SDS011;48891;49.220;6.920;2024-01-11T10:43:06;25.73;;;18.30;;
62832;SDS011;48891;49.220;6.920;2024-01-11T10:45:33;25.38;;;17.33;;
62832;SDS011;48891;49.220;6.920;2024-01-11T10:48:02;27.05;;;18.33;;
62832;SDS011;48891;49.220;6.920;2024-01-11T10:50:33;27.60;;;17.95;;
62832;SDS011;48891;49.220;6.920;2024-01-11T10:53:12;23.23;;;16.13;;
62832;SDS011;48891;49.220;6.920;2024-01-11T10:55:44;24.27;;;17.48;;
62832;SDS011;48891;49.220;6.920;2024-01-11T10:58:10;24.20;;;17.48;;
62832;SDS011;48891;49.220;6.920;2024-01-11T11:00:36;22.17;;;15.82;;
62832;SDS011;48891;49.220;6.920;2024-01-11T11:03:02;24.27;;;16.88;;
62832;SDS011;48891;49.220;6.920;2024-01-11T11:05:29;24.92;;;16.48;;
62832;SDS011;48891;49.220;6.920;2024-01-11T11:07:55;26.85;;;18.25;;
62832;SDS011;48891;49.220;6.920;2024-01-11T11:10:21;24.73;;;17.17;;
62832;SDS011;48891;49.220;6.920;2024-01-11T11:12:46;21.90;;;16.00;;
62832;SDS011;48891;49.220;6.920;2024-01-11T11:15:13;21.83;;;15.90;;
62832;SDS011;48891;49.220;6.920;2024-01-11T11:17:42;21.20;;;15.63;;
62832;SDS011;48891;49.220;6.920;2024-01-11T11:20:10;22.35;;;15.85;;
62832;SDS011;48891;49.220;6.920;2024-01-11T11:22:36;23.48;;;16.38;;
62832;SDS011;48891;49.220;6.920;2024-01-11T11:25:07;21.55;;;16.23;;
62832;SDS011;48891;49.220;6.920;2024-01-11T11:27:48;23.33;;;16.73;;
62832;SDS011;48891;49.220;6.920;2024-01-11T11:30:13;23.90;;;16.80;;
62832;SDS011;48891;49.220;6.920;2024-01-11T11:32:42;24.67;;;17.05;;
62832;SDS011;48891;49.220;6.920;2024-01-11T11:35:08;24.00;;;16.30;;
62832;SDS011;48891;49.220;6.920;2024-01-11T11:37:36;21.77;;;16.25;;
62832;SDS011;48891;49.220;6.920;2024-01-11T11:40:02;21.73;;;15.82;;
62832;SDS011;48891;49.220;6.920;2024-01-11T11:42:30;24.77;;;15.52;;
62832;SDS011;48891;49.220;6.920;2024-01-11T11:44:55;22.60;;;16.15;;
62832;SDS011;48891;49.220;6.920;2024-01-11T11:47:21;21.30;;;15.63;;
62832;SDS011;48891;49.220;6.920;2024-01-11T11:49:57;22.85;;;15.27;;
62832;SDS011;48891;49.220;6.920;2024-01-11T11:52:28;20.73;;;15.13;;
62832;SDS011;48891;49.220;6.920;2024-01-11T11:54:54;21.48;;;15.65;;
62832;SDS011;48891;49.220;6.920;2024-01-11T11:57:21;20.27;;;15.52;;
62832;SDS011;48891;49.220;6.920;2024-01-11T11:59:46;21.08;;;15.07;;
62832;SDS011;48891;49.220;6.920;2024-01-11T12:02:14;20.15;;;15.18;;
62832;SDS011;48891;49.220;6.920;2024-01-11T12:04:48;21.23;;;14.85;;
62832;SDS011;48891;49.220;6.920;2024-01-11T12:07:13;22.00;;;15.43;;
62832;SDS011;48891;49.220;6.920;2024-01-11T12:09:39;20.02;;;15.52;;
62832;SDS011;48891;49.220;6.920;2024-01-11T12:12:05;21.80;;;14.48;;
62832;SDS011;48891;49.220;6.920;2024-01-11T12:14:30;18.63;;;14.60;;
62832;SDS011;48891;49.220;6.920;2024-01-11T12:16:56;19.50;;;14.55;;
62832;SDS011;48891;49.220;6.920;2024-01-11T12:19:23;21.30;;;14.48;;
62832;SDS011;48891;49.220;6.920;2024-01-11T12:21:49;19.17;;;14.05;;
62832;SDS011;48891;49.220;6.920;2024-01-11T12:24:15;20.83;;;14.07;;
62832;SDS011;48891;49.220;6.920;2024-01-11T12:26:41;21.83;;;14.25;;
62832;SDS011;48891;49.220;6.920;2024-01-11T12:29:07;19.23;;;13.27;;
62832;SDS011;48891;49.220;6.920;2024-01-11T12:31:32;17.42;;;12.93;;
62832;SDS011;48891;49.220;6.920;2024-01-11T12:33:58;18.65;;;13.10;;
62832;SDS011;48891;49.220;6.920;2024-01-11T12:36:23;20.83;;;14.02;;
62832;SDS011;48891;49.220;6.920;2024-01-11T12:38:48;17.55;;;14.05;;
62832;SDS011;48891;49.220;6.920;2024-01-11T12:41:14;17.67;;;13.50;;
62832;SDS011;48891;49.220;6.920;2024-01-11T12:43:40;18.95;;;14.05;;
62832;SDS011;48891;49.220;6.920;2024-01-11T12:46:05;17.67;;;12.88;;
62832;SDS011;48891;49.220;6.920;2024-01-11T12:48:30;21.13;;;13.35;;
62832;SDS011;48891;49.220;6.920;2024-01-11T12:50:56;18.77;;;13.38;;
62832;SDS011;48891;49.220;6.920;2024-01-11T12:53:21;19.25;;;13.35;;
62832;SDS011;48891;49.220;6.920;2024-01-11T12:55:47;18.13;;;13.40;;
62832;SDS011;48891;49.220;6.920;2024-01-11T12:58:13;19.48;;;13.15;;
62832;SDS011;48891;49.220;6.920;2024-01-11T13:00:43;17.55;;;13.18;;
62832;SDS011;48891;49.220;6.920;2024-01-11T13:03:08;17.55;;;12.85;;
62832;SDS011;48891;49.220;6.920;2024-01-11T13:05:35;17.38;;;12.85;;
62832;SDS011;48891;49.220;6.920;2024-01-11T13:08:09;20.08;;;12.90;;
62832;SDS011;48891;49.220;6.920;2024-01-11T13:10:35;19.42;;;13.43;;
62832;SDS011;48891;49.220;6.920;2024-01-11T13:13:01;18.02;;;12.98;;
62832;SDS011;48891;49.220;6.920;2024-01-11T13:15:27;17.13;;;13.07;;
62832;SDS011;48891;49.220;6.920;2024-01-11T13:17:52;17.38;;;12.90;;
62832;SDS011;48891;49.220;6.920;2024-01-11T13:20:17;17.27;;;12.60;;
62832;SDS011;48891;49.220;6.920;2024-01-11T13:22:42;17.55;;;12.07;;
62832;SDS011;48891;49.220;6.920;2024-01-11T13:25:08;17.08;;;12.02;;
62832;SDS011;48891;49.220;6.920;2024-01-11T13:27:33;17.05;;;12.15;;
62832;SDS011;48891;49.220;6.920;2024-01-11T13:29:58;18.50;;;12.68;;
62832;SDS011;48891;49.220;6.920;2024-01-11T13:32:23;17.65;;;12.30;;
62832;SDS011;48891;49.220;6.920;2024-01-11T13:34:49;17.92;;;11.95;;
62832;SDS011;48891;49.220;6.920;2024-01-11T13:37:14;16.95;;;12.30;;
62832;SDS011;48891;49.220;6.920;2024-01-11T13:39:39;15.32;;;11.57;;
62832;SDS011;48891;49.220;6.920;2024-01-11T13:42:04;16.40;;;11.75;;
62832;SDS011;48891;49.220;6.920;2024-01-11T13:44:30;18.70;;;12.32;;
62832;SDS011;48891;49.220;6.920;2024-01-11T13:46:55;18.65;;;12.05;;
62832;SDS011;48891;49.220;6.920;2024-01-11T13:49:20;18.10;;;12.02;;
62832;SDS011;48891;49.220;6.920;2024-01-11T13:51:46;17.58;;;12.20;;
62832;SDS011;48891;49.220;6.920;2024-01-11T13:54:11;16.92;;;11.60;;
62832;SDS011;48891;49.220;6.920;2024-01-11T13:56:36;15.45;;;10.75;;
62832;SDS011;48891;49.220;6.920;2024-01-11T13:59:01;13.95;;;10.32;;
62832;SDS011;48891;49.220;6.920;2024-01-11T14:01:27;18.42;;;11.43;;
62832;SDS011;48891;49.220;6.920;2024-01-11T14:03:52;16.17;;;11.80;;
62832;SDS011;48891;49.220;6.920;2024-01-11T14:06:17;15.40;;;10.85;;
62832;SDS011;48891;49.220;6.920;2024-01-11T14:08:42;14.00;;;11.02;;
62832;SDS011;48891;49.220;6.920;2024-01-11T14:11:07;16.80;;;11.52;;
62832;SDS011;48891;49.220;6.920;2024-01-11T14:13:33;15.80;;;10.85;;